Time;durP1;ratioP1;P1;durP2;ratioP2;P2;SDS_P1;SDS_P2;PMS_P1;PMS_P2;Temp;Humidity;BMP_temperature;BMP_pressure;BME280_temperature;BME280_humidity;BME280_pressure;Samples;Min_cycle;Max_cycle;Signal;HPM_P1;HPM_P2
2021/03/31 00:01:38;;;;;;;476.10;281.20;;;;;;;;;;4977159;28;20522;-86
2021/03/31 00:07:43;;;;;;;471.58;280.77;;;;;;;;;;4936148;29;20028;-87
2021/03/31 00:11:02;;;;;;;468.40;270.75;;;;;;;;;;4919838;29;20124;-86
2021/03/31 00:13:49;;;;;;;466.10;270.33;;;;;;;;;;4878813;29;20470;-85
2021/03/31 00:16:26;;;;;;;470.80;283.95;;;;;;;;;;4910831;28;20142;-85
2021/03/31 00:22:27;;;;;;;467.73;270.83;;;;;;;;;;5007436;28;20043;-85
2021/03/31 00:25:50;;;;;;;;;;;;;;;;;;;;;
2021/03/31 00:28:45;;;;;;;;;;;;;;;;;;;;;
2021/03/31 00:31:25;;;;;;;465.92;271.42;;;;;;;;;;5012116;28;20038;-86
2021/03/31 00:37:09;;;;;;;462.23;272.52;;;;;;;;;;5009069;28;20053;-86
2021/03/31 00:40:11;;;;;;;458.98;267.17;;;;;;;;;;4997587;28;20038;-87
2021/03/31 00:45:57;;;;;;;468.23;275.23;;;;;;;;;;4994910;28;20100;-86
2021/03/31 00:52:12;;;;;;;465.35;276.23;;;;;;;;;;5012571;28;20338;-86
2021/03/31 00:55:01;;;;;;;465.73;270.58;;;;;;;;;;5010256;28;20070;-85
2021/03/31 01:00:57;;;;;;;461.45;268.75;;;;;;;;;;4984326;28;20428;-85
2021/03/31 01:03:51;;;;;;;461.48;268.33;;;;;;;;;;4992494;28;20037;-87
2021/03/31 01:06:44;;;;;;;456.88;266.55;;;;;;;;;;4997172;28;20077;-84
2021/03/31 01:09:26;;;;;;;;;;;;;;;;;;;;;
2021/03/31 01:12:09;;;;;;;457.80;269.90;;;;;;;;;;5014234;28;20021;-85
2021/03/31 01:14:50;;;;;;;451.15;261.65;;;;;;;;;;4995635;28;20046;-86
2021/03/31 01:17:31;;;;;;;;;;;;;;;;;;4984208;28;20117;-84
2021/03/31 01:20:44;;;;;;;;;;;;;;;;;;;;;
2021/03/31 01:23:30;;;;;;;462.45;267.58;;;;;;;;;;4991794;28;20034;-84
2021/03/31 01:26:34;;;;;;;454.30;265.65;;;;;;;;;;4960166;28;20098;-89
2021/03/31 01:32:56;;;;;;;461.85;266.35;;;;;;;;;;4908292;28;20047;-86
2021/03/31 01:35:34;;;;;;;462.95;267.67;;;;;;;;;;4978499;28;20042;-86
2021/03/31 01:38:15;;;;;;;468.02;274.35;;;;;;;;;;5004630;28;20124;-88
2021/03/31 01:41:06;;;;;;;456.10;260.35;;;;;;;;;;4975481;28;20629;-88
2021/03/31 01:43:33;;;;;;;459.13;267.00;;;;;;;;;;4974698;28;20030;-86
2021/03/31 01:46:08;;;;;;;458.13;266.50;;;;;;;;;;4974613;28;20637;-87
2021/03/31 01:48:42;;;;;;;459.35;272.13;;;;;;;;;;4976080;28;20041;-86
2021/03/31 01:51:24;;;;;;;454.42;263.08;;;;;;;;;;4976579;28;20031;-87
2021/03/31 01:53:57;;;;;;;461.48;271.65;;;;;;;;;;4975790;28;20045;-87
2021/03/31 01:56:32;;;;;;;464.42;269.67;;;;;;;;;;4976088;28;20046;-88
2021/03/31 01:59:30;;;;;;;455.05;265.63;;;;;;;;;;4976098;28;20173;-88
2021/03/31 02:02:08;;;;;;;454.13;260.95;;;;;;;;;;4976300;28;20026;-87
2021/03/31 02:04:49;;;;;;;465.75;266.92;;;;;;;;;;4957122;28;20038;-86
2021/03/31 02:07:22;;;;;;;450.70;264.05;;;;;;;;;;4971842;28;20034;-87
2021/03/31 02:10:08;;;;;;;456.00;266.58;;;;;;;;;;4974814;28;20555;-87
2021/03/31 02:12:44;;;;;;;451.75;261.00;;;;;;;;;;4955225;28;20537;-87
2021/03/31 02:15:19;;;;;;;456.10;263.40;;;;;;;;;;4969454;28;20421;-85
2021/03/31 02:18:14;;;;;;;463.45;272.65;;;;;;;;;;4982203;28;20050;-83
2021/03/31 02:20:56;;;;;;;;;;;;;;;;;;;;;
2021/03/31 02:23:27;;;;;;;454.67;264.48;;;;;;;;;;5011076;28;20510;-86
2021/03/31 02:26:04;;;;;;;456.63;268.50;;;;;;;;;;4996807;28;20052;-84
2021/03/31 02:28:36;;;;;;;457.15;260.60;;;;;;;;;;4990579;28;20038;-84
2021/03/31 02:31:15;;;;;;;453.50;264.40;;;;;;;;;;4995999;28;20065;-84
2021/03/31 02:33:47;;;;;;;456.95;260.50;;;;;;;;;;4988773;28;20048;-86
2021/03/31 02:36:19;;;;;;;455.02;261.52;;;;;;;;;;4977038;28;20406;-84
2021/03/31 02:38:45;;;;;;;455.23;262.42;;;;;;;;;;4988959;28;20033;-86
2021/03/31 02:41:17;;;;;;;454.50;259.35;;;;;;;;;;4987502;28;20032;-85
2021/03/31 02:43:49;;;;;;;453.98;269.27;;;;;;;;;;4976593;28;20038;-85
2021/03/31 02:46:19;;;;;;;447.45;252.68;;;;;;;;;;4995365;28;20037;-86
2021/03/31 02:48:51;;;;;;;445.85;251.82;;;;;;;;;;4995622;28;20037;-87
2021/03/31 02:51:23;;;;;;;450.92;261.00;;;;;;;;;;4994732;28;20033;-86
2021/03/31 02:53:55;;;;;;;456.00;258.58;;;;;;;;;;4995117;28;20255;-84
2021/03/31 02:56:21;;;;;;;457.95;264.38;;;;;;;;;;4988896;28;20048;-85
2021/03/31 02:59:03;;;;;;;448.67;260.42;;;;;;;;;;4995487;28;20026;-86
2021/03/31 03:01:41;;;;;;;454.85;263.40;;;;;;;;;;4994391;28;20038;-86
2021/03/31 03:04:24;;;;;;;448.38;262.90;;;;;;;;;;4994973;28;20121;-88
2021/03/31 03:06:54;;;;;;;446.33;258.45;;;;;;;;;;4998070;28;20042;-86
2021/03/31 03:09:25;;;;;;;447.52;258.30;;;;;;;;;;4991993;28;20058;-83
2021/03/31 03:12:20;;;;;;;456.20;265.98;;;;;;;;;;5007031;28;20049;-85
2021/03/31 03:15:05;;;;;;;451.52;257.50;;;;;;;;;;4998738;28;20041;-87
2021/03/31 03:17:36;;;;;;;450.98;260.45;;;;;;;;;;4998829;28;20130;-87
2021/03/31 03:20:13;;;;;;;460.95;263.38;;;;;;;;;;4979472;28;20656;-85
2021/03/31 03:23:28;;;;;;;453.25;260.58;;;;;;;;;;4979262;28;20050;-85
2021/03/31 03:25:58;;;;;;;447.85;253.57;;;;;;;;;;5007734;28;20026;-86
2021/03/31 03:28:31;;;;;;;453.95;258.23;;;;;;;;;;4997660;28;20034;-86
2021/03/31 03:31:06;;;;;;;456.65;258.45;;;;;;;;;;4998792;28;20034;-85
2021/03/31 03:33:45;;;;;;;452.20;258.42;;;;;;;;;;4999491;28;20026;-86
2021/03/31 03:36:23;;;;;;;451.73;267.15;;;;;;;;;;4996327;28;20046;-86
2021/03/31 03:38:58;;;;;;;450.20;260.42;;;;;;;;;;4998360;28;20133;-87
2021/03/31 03:41:39;;;;;;;442.02;255.45;;;;;;;;;;4997604;28;20030;-86
2021/03/31 03:44:34;;;;;;;;;;;;;;;;;;;;;
2021/03/31 03:47:06;;;;;;;462.27;260.25;;;;;;;;;;5004268;28;20038;-87
2021/03/31 03:50:08;;;;;;;445.63;261.75;;;;;;;;;;4998891;28;20038;-86
2021/03/31 03:52:53;;;;;;;450.70;257.00;;;;;;;;;;4998934;28;20026;-85
2021/03/31 03:55:32;;;;;;;451.48;258.05;;;;;;;;;;4998489;28;20069;-86
2021/03/31 03:58:13;;;;;;;;;;;;;;;;;;;;;
2021/03/31 04:00:50;;;;;;;445.38;254.93;;;;;;;;;;4996113;28;20022;-86
2021/03/31 04:03:36;;;;;;;448.83;264.42;;;;;;;;;;4979310;28;20038;-85
2021/03/31 04:06:10;;;;;;;444.08;256.38;;;;;;;;;;4978794;28;20481;-85
2021/03/31 04:08:55;;;;;;;;;;;;;;;;;;;;;
2021/03/31 04:11:31;;;;;;;;;;;;;;;;;;;;;
2021/03/31 04:14:09;;;;;;;451.55;250.50;;;;;;;;;;4996016;28;20022;-85
2021/03/31 04:16:47;;;;;;;467.70;262.95;;;;;;;;;;4993274;28;20141;-85
2021/03/31 04:19:26;;;;;;;449.58;246.38;;;;;;;;;;4973943;28;20049;-85
2021/03/31 04:22:25;;;;;;;466.10;261.63;;;;;;;;;;4958888;28;20039;-85
2021/03/31 04:24:51;;;;;;;459.67;261.85;;;;;;;;;;4942514;28;20043;-86
2021/03/31 04:27:32;;;;;;;461.83;258.90;;;;;;;;;;4967387;28;20030;-85
2021/03/31 04:30:05;;;;;;;454.02;252.43;;;;;;;;;;4978369;28;20461;-86
2021/03/31 04:32:39;;;;;;;456.73;254.13;;;;;;;;;;4978117;28;20066;-85
2021/03/31 04:35:16;;;;;;;463.90;261.15;;;;;;;;;;4977578;28;20374;-85
2021/03/31 04:37:47;;;;;;;462.27;259.23;;;;;;;;;;4962721;28;20450;-86
2021/03/31 04:40:36;;;;;;;453.90;254.02;;;;;;;;;;4978083;28;20054;-85
2021/03/31 04:43:29;;;;;;;455.80;255.27;;;;;;;;;;4965266;28;20125;-86
2021/03/31 04:46:23;;;;;;;;;;;;;;;;;;;;;
2021/03/31 04:49:03;;;;;;;454.10;250.82;;;;;;;;;;4984796;28;20026;-87
2021/03/31 04:51:49;;;;;;;457.83;258.90;;;;;;;;;;4970371;28;20038;-86
2021/03/31 04:54:20;;;;;;;453.05;252.40;;;;;;;;;;4959033;28;20045;-86
2021/03/31 05:00:09;;;;;;;;;;;;;;;;;;;;;
2021/03/31 05:02:43;;;;;;;452.75;251.98;;;;;;;;;;4994061;28;20038;-86
2021/03/31 05:05:18;;;;;;;448.55;254.82;;;;;;;;;;4962817;28;20031;-86
2021/03/31 05:07:49;;;;;;;446.33;247.02;;;;;;;;;;4958804;28;20082;-85
2021/03/31 05:10:24;;;;;;;451.02;252.65;;;;;;;;;;4957490;28;20043;-88
2021/03/31 05:12:53;;;;;;;457.70;252.93;;;;;;;;;;4958546;28;20093;-86
2021/03/31 05:15:46;;;;;;;;;;;;;;;;;;;;;
2021/03/31 05:21:26;;;;;;;;;;;;;;;;;;;;;
2021/03/31 05:27:24;;;;;;;;;;;;;;;;;;;;;
2021/03/31 05:30:03;;;;;;;464.23;262.25;;;;;;;;;;4974411;28;20027;-85
2021/03/31 05:36:21;;;;;;;453.75;251.68;;;;;;;;;;4987764;28;20354;-86
2021/03/31 05:39:00;;;;;;;450.33;248.60;;;;;;;;;;4957392;28;20042;-86
2021/03/31 05:41:55;;;;;;;450.27;255.88;;;;;;;;;;4977933;28;20359;-86
2021/03/31 05:44:49;;;;;;;;;;;;;;;;;;;;;
2021/03/31 05:47:52;;;;;;;456.65;259.83;;;;;;;;;;4977875;28;20022;-86
2021/03/31 05:50:47;;;;;;;456.70;255.13;;;;;;;;;;4954529;28;20057;-86
2021/03/31 05:53:25;;;;;;;455.38;257.50;;;;;;;;;;4974634;28;20027;-85
2021/03/31 05:55:57;;;;;;;456.50;255.90;;;;;;;;;;4957069;28;20075;-85
2021/03/31 05:58:57;;;;;;;461.95;264.08;;;;;;;;;;4969322;28;20121;-87
2021/03/31 06:04:57;;;;;;;455.83;256.23;;;;;;;;;;4928503;29;20040;-85
2021/03/31 06:08:06;;;;;;;453.42;250.55;;;;;;;;;;4917206;29;20686;-84
2021/03/31 06:10:48;;;;;;;457.98;256.55;;;;;;;;;;4915502;29;20075;-88
2021/03/31 06:16:42;;;;;;;;;;;;;;;;;;;;;
2021/03/31 06:29:06;;;;;;;481.40;288.08;;;;;;;;;;4887320;29;20052;-86
2021/03/31 06:32:20;;;;;;;;;;;;;;;;;;;;;
2021/03/31 06:38:46;;;;;;;469.85;278.95;;;;;;;;;;4938437;28;20038;-85
2021/03/31 06:44:36;;;;;;;;;;;;;;;;;;;;;
2021/03/31 06:49:52;;;;;;;470.83;299.70;;;;;;;;;;5007000;28;20425;-86
2021/03/31 06:52:30;;;;;;;468.65;304.23;;;;;;;;;;4998983;28;20054;-87
2021/03/31 06:55:28;;;;;;;466.23;302.70;;;;;;;;;;5004031;28;20052;-85
2021/03/31 06:58:06;;;;;;;465.80;304.30;;;;;;;;;;4992165;28;20042;-86
2021/03/31 07:00:48;;;;;;;474.67;315.20;;;;;;;;;;4969890;28;20049;-84
2021/03/31 07:12:51;;;;;;;463.92;319.80;;;;;;;;;;4977696;28;20108;-87
2021/03/31 07:15:21;;;;;;;469.63;327.83;;;;;;;;;;4998181;28;20095;-84
2021/03/31 07:24:31;;;;;;;463.73;351.10;;;;;;;;;;5001125;28;20040;-87
2021/03/31 07:27:23;;;;;;;479.35;369.98;;;;;;;;;;5004901;28;20041;-86
2021/03/31 07:33:16;;;;;;;477.30;375.35;;;;;;;;;;5005613;28;20049;-85
2021/03/31 07:42:54;;;;;;;475.50;379.83;;;;;;;;;;4960832;28;20030;-87
2021/03/31 07:49:00;;;;;;;;;;;;;;;;;;;;;
2021/03/31 07:51:30;;;;;;;475.33;385.23;;;;;;;;;;4973663;28;20381;-86
2021/03/31 07:53:59;;;;;;;479.02;392.92;;;;;;;;;;4988556;28;20038;-85
2021/03/31 07:56:59;;;;;;;;;;;;;;;;;;;;;
2021/03/31 07:59:49;;;;;;;;;;;;;;;;;;5015211;28;20033;-85
2021/03/31 08:02:24;;;;;;;484.98;393.15;;;;;;;;;;4990349;28;20280;-86
2021/03/31 08:04:53;;;;;;;484.35;403.85;;;;;;;;;;4993637;28;20026;-86
2021/03/31 08:07:37;;;;;;;483.63;407.13;;;;;;;;;;4982422;28;20067;-85
2021/03/31 08:10:27;;;;;;;486.85;408.20;;;;;;;;;;5025920;28;20083;-87
2021/03/31 08:12:55;;;;;;;487.48;411.73;;;;;;;;;;4997539;28;20033;-87
2021/03/31 08:15:42;;;;;;;479.38;412.15;;;;;;;;;;4993974;28;20432;-84
2021/03/31 08:18:24;;;;;;;481.77;423.60;;;;;;;;;;4995725;28;20529;-85
2021/03/31 08:20:50;;;;;;;489.58;429.80;;;;;;;;;;4983353;28;20037;-85
2021/03/31 08:23:43;;;;;;;490.15;436.10;;;;;;;;;;4994113;28;20073;-83
2021/03/31 08:26:27;;;;;;;495.90;441.20;;;;;;;;;;4983726;28;20036;-84
2021/03/31 08:28:56;;;;;;;509.02;453.67;;;;;;;;;;5007063;28;20034;-83
2021/03/31 08:31:23;;;;;;;520.50;464.38;;;;;;;;;;4994261;28;20560;-83
2021/03/31 08:33:49;;;;;;;515.78;460.75;;;;;;;;;;4982682;28;20150;-87
2021/03/31 08:36:21;;;;;;;525.80;469.73;;;;;;;;;;4987838;28;20030;-87
2021/03/31 08:39:26;;;;;;;;;;;;;;;;;;;;;
2021/03/31 08:41:56;;;;;;;535.20;479.30;;;;;;;;;;4983580;28;20570;-84
2021/03/31 08:44:38;;;;;;;535.33;479.95;;;;;;;;;;4992464;28;20034;-83
2021/03/31 08:47:21;;;;;;;533.55;478.88;;;;;;;;;;4984155;28;20032;-83
2021/03/31 08:49:52;;;;;;;546.17;490.77;;;;;;;;;;4983245;28;20038;-83
2021/03/31 08:52:21;;;;;;;549.05;493.52;;;;;;;;;;4988564;28;20029;-85
2021/03/31 08:54:51;;;;;;;547.67;492.42;;;;;;;;;;4995221;28;20026;-83
2021/03/31 08:57:19;;;;;;;549.80;494.70;;;;;;;;;;4978938;28;20117;-82
2021/03/31 08:59:47;;;;;;;560.35;504.25;;;;;;;;;;4994373;28;20044;-87
2021/03/31 09:02:17;;;;;;;572.10;515.28;;;;;;;;;;4981403;28;20041;-82
2021/03/31 09:04:43;;;;;;;571.60;515.40;;;;;;;;;;4988076;28;20034;-83
2021/03/31 09:07:10;;;;;;;578.70;522.25;;;;;;;;;;4989091;28;20373;-81
2021/03/31 09:09:37;;;;;;;581.28;525.00;;;;;;;;;;4986004;28;20029;-83
2021/03/31 09:12:04;;;;;;;585.08;528.22;;;;;;;;;;4990198;28;20413;-81
2021/03/31 09:14:33;;;;;;;584.53;528.38;;;;;;;;;;4979939;28;20022;-82
2021/03/31 09:17:28;;;;;;;583.38;527.38;;;;;;;;;;5001986;28;20050;-87
2021/03/31 09:20:09;;;;;;;585.50;529.60;;;;;;;;;;4991964;28;20037;-83
2021/03/31 09:22:35;;;;;;;578.95;523.65;;;;;;;;;;5020139;28;20205;-82
2021/03/31 09:25:05;;;;;;;590.20;534.03;;;;;;;;;;4993582;28;20026;-83
2021/03/31 09:27:32;;;;;;;584.40;528.30;;;;;;;;;;4980423;28;20500;-83
2021/03/31 09:30:04;;;;;;;589.00;532.70;;;;;;;;;;4987228;28;20030;-81
2021/03/31 09:32:41;;;;;;;587.03;530.78;;;;;;;;;;4985023;28;20041;-82
2021/03/31 09:35:12;;;;;;;581.95;525.90;;;;;;;;;;4975550;28;20026;-85
2021/03/31 09:37:40;;;;;;;589.65;533.53;;;;;;;;;;4990122;28;20029;-81
2021/03/31 09:40:06;;;;;;;587.88;532.08;;;;;;;;;;4992602;28;20042;-82
2021/03/31 09:42:38;;;;;;;597.55;541.28;;;;;;;;;;4991102;28;20045;-82
2021/03/31 09:45:07;;;;;;;605.70;548.97;;;;;;;;;;4990995;28;20030;-83
2021/03/31 09:47:34;;;;;;;619.55;562.10;;;;;;;;;;4991264;28;20058;-83
2021/03/31 09:50:20;;;;;;;;;;;;;;;;;;;;;
2021/03/31 09:52:47;;;;;;;639.33;581.70;;;;;;;;;;5000387;28;20030;-83
2021/03/31 09:55:18;;;;;;;647.08;589.22;;;;;;;;;;4991581;28;20133;-86
2021/03/31 09:57:48;;;;;;;672.47;614.10;;;;;;;;;;4991639;28;20366;-83
2021/03/31 10:00:16;;;;;;;685.03;626.30;;;;;;;;;;4991936;28;20651;-86
2021/03/31 10:02:43;;;;;;;688.30;629.90;;;;;;;;;;4991490;28;20037;-84
2021/03/31 10:05:13;;;;;;;686.88;628.75;;;;;;;;;;4992224;28;20060;-84
2021/03/31 10:07:39;;;;;;;694.63;636.08;;;;;;;;;;4979160;28;20101;-81
2021/03/31 10:10:06;;;;;;;704.33;645.20;;;;;;;;;;4990376;28;20057;-81
2021/03/31 10:12:36;;;;;;;713.20;653.83;;;;;;;;;;4976466;28;20058;-81
2021/03/31 10:15:10;;;;;;;706.13;647.58;;;;;;;;;;4992075;28;20105;-81
2021/03/31 10:17:36;;;;;;;704.63;646.45;;;;;;;;;;4992851;28;20041;-82
2021/03/31 10:20:12;;;;;;;720.45;661.15;;;;;;;;;;4990889;28;20030;-84
2021/03/31 10:22:39;;;;;;;710.42;651.47;;;;;;;;;;4990425;28;20022;-83
2021/03/31 10:25:06;;;;;;;708.42;649.60;;;;;;;;;;4988563;28;20302;-82
2021/03/31 10:27:46;;;;;;;726.03;667.03;;;;;;;;;;4987203;28;20080;-82
2021/03/31 10:30:28;;;;;;;726.15;667.33;;;;;;;;;;4994816;28;20457;-85
2021/03/31 10:32:58;;;;;;;734.00;674.80;;;;;;;;;;4984904;28;20027;-82
2021/03/31 10:35:56;;;;;;;727.75;669.33;;;;;;;;;;5019273;28;20034;-84
2021/03/31 10:38:23;;;;;;;;;;;;;;;;;;4986337;28;20017;-83
2021/03/31 10:49:27;;;;;;;686.28;629.63;;;;;;;;;;5000856;28;20032;-82
2021/03/31 10:51:58;;;;;;;;;;;;;;;;;;4993462;28;20482;-82
2021/03/31 10:54:27;;;;;;;661.83;606.13;;;;;;;;;;5006898;28;19928;-82
2021/03/31 10:57:04;;;;;;;678.63;621.67;;;;;;;;;;4994732;28;20034;-83
2021/03/31 10:59:34;;;;;;;665.65;609.33;;;;;;;;;;5000251;28;20548;-82
2021/03/31 11:02:00;;;;;;;673.90;617.65;;;;;;;;;;4995366;28;20023;-83
2021/03/31 11:04:27;;;;;;;680.65;623.80;;;;;;;;;;4980755;28;20084;-82
2021/03/31 11:06:53;;;;;;;690.63;633.22;;;;;;;;;;5006924;28;20023;-83
2021/03/31 11:09:19;;;;;;;645.50;590.92;;;;;;;;;;4997478;28;20108;-82
2021/03/31 11:11:45;;;;;;;647.00;592.25;;;;;;;;;;5005557;28;20251;-82
2021/03/31 11:14:12;;;;;;;631.85;578.13;;;;;;;;;;5004950;28;20514;-81
2021/03/31 11:16:40;;;;;;;627.65;573.78;;;;;;;;;;4991924;28;20030;-83
2021/03/31 11:19:29;;;;;;;630.58;576.13;;;;;;;;;;5015303;28;20056;-83
2021/03/31 11:27:30;;;;;;;624.95;570.50;;;;;;;;;;4985855;28;20053;-83
2021/03/31 11:29:56;;;;;;;625.75;572.05;;;;;;;;;;4960903;28;20045;-82
2021/03/31 11:32:24;;;;;;;608.83;555.92;;;;;;;;;;4970811;28;20038;-82
2021/03/31 11:34:50;;;;;;;615.78;562.15;;;;;;;;;;4968704;28;20113;-82
2021/03/31 11:37:16;;;;;;;619.45;565.22;;;;;;;;;;4966008;28;20921;-81
2021/03/31 11:39:45;;;;;;;613.25;559.65;;;;;;;;;;4969973;28;20104;-81
2021/03/31 11:42:11;;;;;;;605.33;552.40;;;;;;;;;;4973013;28;20030;-84
2021/03/31 11:44:37;;;;;;;618.25;564.45;;;;;;;;;;4961309;28;20023;-84
2021/03/31 11:47:03;;;;;;;618.38;565.10;;;;;;;;;;4959589;28;20023;-82
2021/03/31 11:49:29;;;;;;;619.85;566.28;;;;;;;;;;4963276;28;20084;-82
2021/03/31 11:51:55;;;;;;;624.53;570.80;;;;;;;;;;4972591;28;20042;-83
2021/03/31 11:54:24;;;;;;;621.28;567.75;;;;;;;;;;4976095;28;20041;-83
2021/03/31 11:56:50;;;;;;;624.63;571.20;;;;;;;;;;4973350;28;20125;-83
2021/03/31 11:59:25;;;;;;;632.35;578.10;;;;;;;;;;4963235;28;20121;-81
2021/03/31 12:01:51;;;;;;;645.95;590.67;;;;;;;;;;4966310;28;20029;-82
2021/03/31 12:04:17;;;;;;;637.30;582.92;;;;;;;;;;4969275;28;20023;-84
2021/03/31 12:06:44;;;;;;;648.05;592.72;;;;;;;;;;4973357;28;20022;-83
2021/03/31 12:09:12;;;;;;;650.28;594.85;;;;;;;;;;4977137;28;20030;-82
2021/03/31 12:11:39;;;;;;;641.38;586.67;;;;;;;;;;4975406;28;20022;-82
2021/03/31 12:14:05;;;;;;;643.80;588.65;;;;;;;;;;4976200;28;20061;-82
2021/03/31 12:16:31;;;;;;;654.13;599.20;;;;;;;;;;4975553;28;20029;-82
2021/03/31 12:18:57;;;;;;;652.15;597.10;;;;;;;;;;4975888;28;20042;-83
2021/03/31 12:21:23;;;;;;;650.10;595.90;;;;;;;;;;4973904;28;20021;-81
2021/03/31 12:23:49;;;;;;;675.67;619.78;;;;;;;;;;4967201;28;20061;-81
2021/03/31 12:26:16;;;;;;;682.33;626.65;;;;;;;;;;4973184;28;20057;-82
2021/03/31 12:28:50;;;;;;;694.78;638.28;;;;;;;;;;4971178;28;20688;-84
2021/03/31 12:31:24;;;;;;;698.35;642.38;;;;;;;;;;4976603;28;20049;-86
2021/03/31 12:33:52;;;;;;;679.55;624.28;;;;;;;;;;4996225;28;20022;-85
2021/03/31 12:36:28;;;;;;;666.80;612.03;;;;;;;;;;4978270;28;20385;-84
2021/03/31 12:38:55;;;;;;;654.38;599.78;;;;;;;;;;4973800;28;20458;-83
2021/03/31 12:41:21;;;;;;;641.05;586.25;;;;;;;;;;4973165;28;20616;-82
2021/03/31 12:43:46;;;;;;;610.53;558.15;;;;;;;;;;4966865;28;20106;-82
2021/03/31 12:46:16;;;;;;;606.75;553.55;;;;;;;;;;4959583;28;20026;-84
2021/03/31 12:48:49;;;;;;;600.03;546.80;;;;;;;;;;4972940;28;20026;-86
2021/03/31 12:51:20;;;;;;;602.05;547.28;;;;;;;;;;4975512;28;20503;-86
2021/03/31 12:54:37;;;;;;;591.78;537.60;;;;;;;;;;4972679;28;20439;-81
2021/03/31 12:56:32;;;;;;;588.17;533.92;;;;;;;;;;4975089;28;20035;-84
2021/03/31 12:58:59;;;;;;;580.92;527.08;;;;;;;;;;4963631;28;20194;-82
2021/03/31 13:01:38;;;;;;;578.05;524.13;;;;;;;;;;4988506;28;20023;-88
2021/03/31 13:04:04;;;;;;;570.38;516.53;;;;;;;;;;4997498;28;20374;-83
2021/03/31 13:06:31;;;;;;;568.17;514.13;;;;;;;;;;4974587;28;20037;-79
2021/03/31 13:08:57;;;;;;;569.75;515.45;;;;;;;;;;4969013;28;20022;-82
2021/03/31 13:11:24;;;;;;;565.90;511.35;;;;;;;;;;4980509;28;20731;-81
2021/03/31 13:24:32;;;;;;;551.70;497.45;;;;;;;;;;4976181;28;20674;-82
2021/03/31 13:27:15;;;;;;;561.70;506.15;;;;;;;;;;4974514;28;20031;-82
2021/03/31 13:32:53;;;;;;;556.70;500.83;;;;;;;;;;4927976;29;20134;-83
2021/03/31 13:35:30;;;;;;;556.35;500.65;;;;;;;;;;4928902;29;20031;-83
2021/03/31 13:38:07;;;;;;;559.47;504.05;;;;;;;;;;4955934;28;20101;-83
2021/03/31 13:40:35;;;;;;;554.88;499.63;;;;;;;;;;4972256;28;20030;-82
2021/03/31 13:43:01;;;;;;;560.67;504.63;;;;;;;;;;4972577;28;20034;-81
2021/03/31 13:45:27;;;;;;;561.03;504.92;;;;;;;;;;4966973;28;20105;-83
2021/03/31 13:47:59;;;;;;;560.90;504.70;;;;;;;;;;4971597;28;20621;-81
2021/03/31 13:50:26;;;;;;;561.92;505.80;;;;;;;;;;4963231;28;20019;-82
2021/03/31 13:52:56;;;;;;;566.38;510.17;;;;;;;;;;4963279;28;20026;-86
2021/03/31 13:55:24;;;;;;;558.00;502.13;;;;;;;;;;4962872;28;20109;-83
2021/03/31 13:57:51;;;;;;;559.92;504.27;;;;;;;;;;4972354;28;20037;-84
2021/03/31 14:00:22;;;;;;;561.55;505.65;;;;;;;;;;4957797;28;20035;-83
2021/03/31 14:02:48;;;;;;;559.55;503.75;;;;;;;;;;4957277;28;20672;-83
2021/03/31 14:05:14;;;;;;;560.60;504.52;;;;;;;;;;4966460;28;20033;-85
2021/03/31 14:07:40;;;;;;;563.72;507.38;;;;;;;;;;4973281;28;20026;-82
2021/03/31 14:10:08;;;;;;;561.47;505.58;;;;;;;;;;4995322;28;20089;-82
2021/03/31 14:12:34;;;;;;;555.97;500.75;;;;;;;;;;4961625;28;20031;-81
2021/03/31 14:15:05;;;;;;;562.47;506.85;;;;;;;;;;4967093;28;20058;-84
2021/03/31 14:17:32;;;;;;;563.97;508.23;;;;;;;;;;4954775;28;20058;-84
2021/03/31 14:20:03;;;;;;;569.47;513.83;;;;;;;;;;4957940;28;20117;-85
2021/03/31 14:22:29;;;;;;;583.78;527.67;;;;;;;;;;4972666;28;20026;-83
2021/03/31 14:24:56;;;;;;;580.40;525.25;;;;;;;;;;4971703;28;20057;-83
2021/03/31 14:27:23;;;;;;;587.42;532.20;;;;;;;;;;4972701;28;20037;-83
2021/03/31 14:29:49;;;;;;;603.30;547.75;;;;;;;;;;4972632;28;20646;-83
2021/03/31 14:32:17;;;;;;;604.85;549.58;;;;;;;;;;4989263;28;20054;-83
2021/03/31 14:34:43;;;;;;;611.05;555.67;;;;;;;;;;4954166;28;20035;-82
2021/03/31 14:37:10;;;;;;;614.75;559.17;;;;;;;;;;4954264;28;20405;-81
2021/03/31 14:39:37;;;;;;;612.53;557.33;;;;;;;;;;4962965;28;20038;-83
2021/03/31 14:42:05;;;;;;;607.83;552.53;;;;;;;;;;4962684;28;20026;-82
2021/03/31 14:47:33;;;;;;;595.00;540.38;;;;;;;;;;4979247;28;20057;-86
2021/03/31 14:50:00;;;;;;;608.95;552.70;;;;;;;;;;4966003;28;20072;-83
2021/03/31 14:55:47;;;;;;;600.92;545.72;;;;;;;;;;4985178;28;20126;-82
2021/03/31 15:01:07;;;;;;;594.20;538.42;;;;;;;;;;4925840;29;20075;-80
2021/03/31 15:03:34;;;;;;;592.97;537.03;;;;;;;;;;4983286;28;20042;-82
2021/03/31 15:06:04;;;;;;;589.85;534.65;;;;;;;;;;4979711;28;20124;-82
2021/03/31 15:08:30;;;;;;;586.65;531.35;;;;;;;;;;4979681;28;20026;-84
2021/03/31 15:10:56;;;;;;;585.15;529.83;;;;;;;;;;4967164;28;20048;-83
2021/03/31 15:13:22;;;;;;;584.10;528.63;;;;;;;;;;4970422;28;20023;-82
2021/03/31 15:15:48;;;;;;;590.78;535.03;;;;;;;;;;4980522;28;20397;-81
2021/03/31 15:18:20;;;;;;;587.60;532.08;;;;;;;;;;4971523;28;20023;-80
2021/03/31 15:21:05;;;;;;;589.33;533.67;;;;;;;;;;4976062;28;20049;-82
2021/03/31 15:23:44;;;;;;;579.00;524.10;;;;;;;;;;4974587;28;20105;-82
2021/03/31 15:26:29;;;;;;;579.17;523.95;;;;;;;;;;4975039;28;20042;-87
2021/03/31 15:29:12;;;;;;;577.22;522.00;;;;;;;;;;4975990;28;20038;-85
2021/03/31 15:35:07;;;;;;;570.13;514.92;;;;;;;;;;4982617;28;20035;-92
2021/03/31 16:09:16;;;;;;;579.13;523.85;;;;;;;;;;4900341;29;20052;-87
2021/03/31 16:11:53;;;;;;;575.40;520.67;;;;;;;;;;4811519;29;20118;-86
2021/03/31 16:14:28;;;;;;;574.97;520.45;;;;;;;;;;4865537;29;20064;-83
2021/03/31 16:16:54;;;;;;;573.72;518.92;;;;;;;;;;4899279;29;20442;-79
2021/03/31 16:22:34;;;;;;;570.25;514.83;;;;;;;;;;4916451;29;20413;-84
2021/03/31 16:25:14;;;;;;;570.35;515.30;;;;;;;;;;4901606;29;20131;-87
2021/03/31 16:34:19;;;;;;;557.33;502.27;;;;;;;;;;4917087;29;20050;-86
2021/03/31 16:37:15;;;;;;;553.72;499.13;;;;;;;;;;4895894;29;20028;-87
2021/03/31 16:40:29;;;;;;;;;;;;;;;;;;;;;
2021/03/31 16:43:32;;;;;;;;;;;;;;;;;;;;;
2021/03/31 16:46:17;;;;;;;542.00;486.73;;;;;;;;;;4981396;28;20027;-86
2021/03/31 16:48:48;;;;;;;546.25;490.73;;;;;;;;;;5004902;28;20066;-85
2021/03/31 16:51:23;;;;;;;535.55;480.40;;;;;;;;;;4968505;28;20078;-87
2021/03/31 16:53:55;;;;;;;535.15;480.40;;;;;;;;;;4976021;28;20501;-85
2021/03/31 16:56:21;;;;;;;530.90;475.90;;;;;;;;;;5009084;28;20038;-83
2021/03/31 16:58:47;;;;;;;530.75;475.52;;;;;;;;;;4970760;28;20026;-85
2021/03/31 17:01:14;;;;;;;531.03;475.40;;;;;;;;;;4973274;28;20033;-84
2021/03/31 17:03:41;;;;;;;526.78;471.25;;;;;;;;;;4970036;28;20035;-82
2021/03/31 17:06:07;;;;;;;520.95;465.67;;;;;;;;;;4976113;28;20031;-82
2021/03/31 17:08:33;;;;;;;521.47;466.13;;;;;;;;;;5008846;28;20026;-82
2021/03/31 17:10:59;;;;;;;516.63;461.33;;;;;;;;;;5005477;28;20034;-82
2021/03/31 17:13:26;;;;;;;529.47;472.88;;;;;;;;;;4988757;28;20045;-82
2021/03/31 17:15:52;;;;;;;519.28;463.25;;;;;;;;;;5006864;28;20117;-81
2021/03/31 17:18:18;;;;;;;510.13;454.42;;;;;;;;;;5008700;28;20026;-82
2021/03/31 17:20:47;;;;;;;508.67;452.95;;;;;;;;;;5002210;28;20478;-87
2021/03/31 17:23:13;;;;;;;505.90;449.83;;;;;;;;;;4958759;28;20336;-83
2021/03/31 17:25:41;;;;;;;505.92;449.70;;;;;;;;;;4966777;28;20133;-83
2021/03/31 17:28:07;;;;;;;504.65;447.80;;;;;;;;;;4971027;28;20049;-83
2021/03/31 17:30:34;;;;;;;509.58;453.38;;;;;;;;;;4970008;28;20041;-82
2021/03/31 17:33:02;;;;;;;508.55;452.40;;;;;;;;;;4975424;28;20034;-79
2021/03/31 17:35:28;;;;;;;507.98;451.95;;;;;;;;;;4971216;28;20097;-81
2021/03/31 17:37:57;;;;;;;505.90;446.92;;;;;;;;;;4975608;28;20648;-82
2021/03/31 17:40:23;;;;;;;498.10;441.58;;;;;;;;;;4975957;28;20030;-81
2021/03/31 17:42:51;;;;;;;507.10;441.77;;;;;;;;;;4968978;28;20121;-88
2021/03/31 17:45:19;;;;;;;504.92;442.25;;;;;;;;;;4963536;28;20069;-84
2021/03/31 17:47:45;;;;;;;507.98;442.30;;;;;;;;;;4956390;28;20068;-81
2021/03/31 17:50:14;;;;;;;503.92;438.02;;;;;;;;;;4958363;28;20060;-84
2021/03/31 17:52:45;;;;;;;500.30;437.50;;;;;;;;;;4968337;28;20026;-83
2021/03/31 17:55:11;;;;;;;507.40;437.27;;;;;;;;;;4958010;28;20030;-82
2021/03/31 17:57:37;;;;;;;505.70;439.52;;;;;;;;;;4957674;28;20458;-85
2021/03/31 18:00:05;;;;;;;507.75;435.52;;;;;;;;;;4961942;28;20026;-83